createdAt,value
2018-04-29T00:02:00.852Z,11.03
2018-04-29T00:04:28.391Z,15.07
2018-04-29T00:06:56.688Z,15.53
2018-04-29T00:09:24.240Z,17.13
2018-04-29T00:11:51.788Z,13.77
2018-04-29T00:14:20.105Z,15.57
2018-04-29T00:16:47.619Z,12.43
2018-04-29T00:19:15.938Z,10.47
2018-04-29T00:21:43.465Z,11.03
2018-04-29T00:24:11.048Z,13.83
2018-04-29T00:26:38.584Z,11.50
2018-04-29T00:29:06.151Z,9.03
2018-04-29T00:31:33.728Z,12.97
2018-04-29T00:34:01.264Z,10.50
2018-04-29T00:36:28.801Z,13.77
2018-04-29T00:38:57.137Z,12.97
2018-04-29T00:41:24.656Z,10.17
2018-04-29T00:43:52.211Z,15.80
2018-04-29T00:46:20.543Z,15.40
2018-04-29T00:48:48.073Z,16.93
2018-04-29T00:51:15.612Z,16.73
2018-04-29T00:53:43.163Z,11.17
2018-04-29T00:56:10.687Z,10.57
2018-04-29T00:58:38.239Z,13.63
2018-04-29T01:01:05.796Z,15.37
2018-04-29T01:03:33.319Z,11.07
2018-04-29T01:06:00.918Z,15.70
2018-04-29T01:08:29.187Z,10.03
2018-04-29T01:10:56.724Z,15.23
2018-04-29T01:13:24.288Z,14.23
2018-04-29T01:15:51.820Z,12.67
2018-04-29T01:18:19.358Z,12.10
2018-04-29T01:20:47.673Z,9.93
2018-04-29T01:23:15.232Z,9.73
2018-04-29T01:25:42.744Z,11.87
2018-04-29T01:28:11.036Z,8.17
2018-04-29T01:30:38.572Z,12.87
2018-04-29T01:33:06.896Z,13.40
2018-04-29T01:35:34.429Z,9.00
2018-04-29T01:38:01.957Z,10.27
2018-04-29T01:40:30.259Z,8.50
2018-04-29T01:42:58.557Z,12.50
2018-04-29T01:45:26.117Z,13.17
2018-04-29T01:47:53.670Z,9.53
2018-04-29T01:50:21.207Z,11.63
2018-04-29T01:52:49.513Z,12.03
2018-04-29T01:55:17.043Z,15.27
2018-04-29T01:57:45.351Z,12.07
2018-04-29T02:00:12.893Z,15.53
2018-04-29T02:02:40.424Z,16.10
2018-04-29T02:05:08.866Z,13.03
2018-04-29T02:07:36.388Z,11.17
2018-04-29T02:10:03.911Z,11.47
2018-04-29T02:12:31.451Z,10.27
2018-04-29T02:14:59.017Z,11.93
2018-04-29T02:17:27.364Z,8.83
2018-04-29T02:19:54.936Z,9.50
2018-04-29T02:22:22.476Z,7.43
2018-04-29T02:24:50.078Z,10.97
2018-04-29T02:27:17.612Z,11.97
2018-04-29T02:29:45.162Z,10.50
2018-04-29T02:32:12.712Z,12.87
2018-04-29T02:34:40.278Z,15.80
2018-04-29T02:37:07.832Z,14.00
2018-04-29T02:39:35.377Z,13.57
2018-04-29T02:42:02.905Z,13.20
2018-04-29T02:44:31.211Z,17.30
2018-04-29T02:46:58.739Z,14.10
2018-04-29T02:49:27.077Z,17.90
2018-04-29T02:51:54.617Z,15.37
2018-04-29T02:54:22.163Z,15.37
2018-04-29T02:56:49.691Z,15.57
2018-04-29T02:59:17.996Z,13.77
2018-04-29T03:01:45.535Z,20.03
2018-04-29T03:04:13.854Z,15.90
2018-04-29T03:06:41.402Z,14.80
2018-04-29T03:09:08.932Z,12.50
2018-04-29T03:11:36.452Z,15.00
2018-04-29T03:14:03.993Z,15.80
2018-04-29T03:16:31.549Z,15.97
2018-04-29T03:18:59.502Z,20.10
2018-04-29T03:21:27.083Z,15.63
2018-04-29T03:23:54.617Z,14.90
2018-04-29T03:26:22.157Z,16.13
2018-04-29T03:28:49.689Z,18.07
2018-04-29T03:31:17.245Z,16.07
2018-04-29T03:33:44.771Z,18.50
2018-04-29T03:36:12.317Z,17.07
2018-04-29T03:38:39.857Z,19.90
2018-04-29T03:41:07.407Z,25.53
2018-04-29T03:43:34.939Z,16.57
2018-04-29T03:46:02.478Z,15.43
2018-04-29T03:48:30.034Z,16.37
2018-04-29T03:50:57.582Z,17.17
2018-04-29T03:53:25.151Z,16.17
2018-04-29T03:55:52.707Z,18.20
2018-04-29T03:58:32.279Z,17.07
2018-04-29T04:01:12.520Z,14.47
2018-04-29T04:03:52.112Z,12.83
2018-04-29T04:06:19.676Z,13.87
2018-04-29T04:08:47.199Z,21.40
2018-04-29T04:11:15.561Z,19.87
2018-04-29T04:13:43.140Z,16.73
2018-04-29T04:16:11.428Z,16.37
2018-04-29T04:18:38.958Z,19.40
2018-04-29T04:21:07.309Z,15.17
2018-04-29T04:23:34.841Z,12.33
2018-04-29T04:26:02.373Z,14.20
2018-04-29T04:28:29.936Z,17.13
2018-04-29T04:30:57.465Z,12.33
2018-04-29T04:33:25.008Z,14.67
2018-04-29T04:35:52.560Z,11.03
2018-04-29T04:38:20.097Z,13.03
2018-04-29T04:40:47.632Z,14.13
2018-04-29T04:43:15.167Z,12.23
2018-04-29T04:45:43.483Z,14.13
2018-04-29T04:48:11.000Z,13.13
2018-04-29T04:50:39.331Z,14.40
2018-04-29T04:53:07.720Z,15.03
2018-04-29T04:55:35.263Z,16.27
2018-04-29T04:58:02.866Z,18.23
2018-04-29T05:00:30.334Z,14.27
2018-04-29T05:02:58.655Z,14.47
2018-04-29T05:05:26.194Z,16.40
2018-04-29T05:07:53.729Z,16.67
2018-04-29T05:10:22.044Z,20.20
2018-04-29T05:12:49.591Z,18.23
2018-04-29T05:15:17.121Z,12.33
2018-04-29T05:17:45.430Z,14.70
2018-04-29T05:20:12.961Z,12.10
2018-04-29T05:22:40.517Z,12.73
2018-04-29T05:25:08.052Z,15.60
2018-04-29T05:27:35.596Z,12.23
2018-04-29T05:30:03.139Z,11.10
2018-04-29T05:32:30.687Z,14.30
2018-04-29T05:35:04.923Z,10.33
2018-04-29T05:37:32.478Z,12.67
2018-04-29T05:40:00.041Z,11.40
2018-04-29T05:42:27.591Z,10.93
2018-04-29T05:44:55.138Z,13.50
2018-04-29T05:47:23.364Z,12.83
2018-04-29T05:49:51.738Z,12.07
2018-04-29T05:52:19.223Z,14.10
2018-04-29T05:54:46.753Z,12.80
2018-04-29T05:57:15.059Z,13.13
2018-04-29T05:59:42.592Z,13.30
2018-04-29T06:02:10.881Z,11.80
2018-04-29T06:04:38.420Z,9.87
2018-04-29T06:07:05.970Z,11.07
2018-04-29T06:09:34.608Z,13.53
2018-04-29T06:12:02.150Z,11.60
2018-04-29T06:14:29.684Z,14.60
2018-04-29T06:16:58.201Z,15.47
2018-04-29T06:19:25.735Z,14.90
2018-04-29T06:21:53.270Z,13.10
2018-04-29T06:24:20.797Z,12.33
2018-04-29T06:26:48.330Z,9.73
2018-04-29T06:29:15.862Z,14.03
2018-04-29T06:31:44.159Z,11.67
2018-04-29T06:34:11.688Z,10.17
2018-04-29T06:36:40.021Z,12.77
2018-04-29T06:39:07.546Z,9.77
2018-04-29T06:41:35.087Z,10.30
2018-04-29T06:44:03.394Z,12.33
2018-04-29T06:46:30.986Z,12.90
2018-04-29T06:48:58.611Z,12.83
2018-04-29T06:51:26.151Z,14.43
2018-04-29T06:53:53.669Z,12.43
2018-04-29T06:56:21.225Z,11.87
2018-04-29T06:58:50.827Z,10.40
2018-04-29T07:01:18.368Z,11.40
2018-04-29T07:03:48.808Z,11.20
2018-04-29T07:06:16.360Z,13.87
2018-04-29T07:08:43.901Z,13.67
2018-04-29T07:11:14.415Z,12.53
2018-04-29T07:13:46.087Z,11.67
2018-04-29T07:16:13.615Z,8.93
2018-04-29T07:18:53.630Z,8.83
2018-04-29T07:21:21.155Z,10.77
2018-04-29T07:23:48.682Z,7.43
2018-04-29T07:26:16.985Z,8.17
2018-04-29T07:28:44.597Z,9.87
2018-04-29T07:31:12.824Z,8.50
2018-04-29T07:33:40.352Z,7.70
2018-04-29T07:36:29.273Z,9.37
2018-04-29T07:38:56.811Z,9.50
2018-04-29T07:41:24.536Z,11.80
2018-04-29T07:43:52.061Z,9.53
2018-04-29T07:46:19.595Z,10.50
2018-04-29T07:48:47.121Z,9.33
2018-04-29T07:51:14.653Z,10.13
2018-04-29T07:53:42.969Z,8.70
2018-04-29T07:59:14.352Z,8.37
2018-04-29T08:01:41.892Z,8.30
2018-04-29T08:04:09.429Z,7.63
2018-04-29T08:06:37.729Z,7.83
2018-04-29T08:09:05.261Z,5.57
2018-04-29T08:11:40.747Z,7.00
2018-04-29T08:14:08.287Z,7.03
2018-04-29T08:16:35.812Z,8.20
2018-04-29T08:19:04.108Z,8.20
2018-04-29T08:21:31.640Z,6.10
2018-04-29T08:23:59.945Z,8.27
2018-04-29T08:26:27.484Z,8.83
2018-04-29T08:28:55.777Z,7.57
2018-04-29T08:31:23.341Z,5.93
2018-04-29T08:33:50.860Z,6.60
2018-04-29T08:36:19.178Z,8.10
2018-04-29T08:38:46.698Z,9.67
2018-04-29T08:41:14.227Z,6.60
2018-04-29T08:43:41.764Z,8.57
2018-04-29T08:46:09.309Z,8.57
2018-04-29T08:48:36.898Z,7.23
2018-04-29T08:51:05.161Z,7.53
2018-04-29T08:53:32.754Z,6.83
2018-04-29T08:56:00.317Z,7.50
2018-04-29T08:58:27.823Z,7.60
2018-04-29T09:00:55.350Z,11.27
2018-04-29T09:03:23.651Z,8.37
2018-04-29T09:05:51.185Z,6.33
2018-04-29T09:08:19.499Z,8.80
2018-04-29T09:10:47.041Z,7.10
2018-04-29T09:13:14.580Z,6.40
2018-04-29T09:15:42.102Z,7.97
2018-04-29T09:18:09.640Z,6.23
2018-04-29T09:20:37.188Z,5.63
2018-04-29T09:23:04.721Z,7.43
2018-04-29T09:25:32.252Z,6.27
2018-04-29T09:27:59.808Z,10.33
2018-04-29T09:30:27.343Z,6.67
2018-04-29T09:32:54.891Z,7.10
2018-04-29T09:35:22.414Z,9.13
2018-04-29T09:37:50.731Z,6.67
2018-04-29T09:40:18.247Z,7.93
2018-04-29T09:42:46.680Z,7.97
2018-04-29T09:45:14.223Z,5.47
2018-04-29T09:47:41.745Z,8.37
2018-04-29T09:50:09.293Z,6.60
2018-04-29T09:52:37.604Z,8.53
2018-04-29T09:55:05.904Z,7.33
2018-04-29T09:57:33.438Z,7.00
2018-04-29T10:00:00.961Z,7.20
2018-04-29T10:02:32.087Z,7.40
2018-04-29T10:04:59.624Z,6.00
2018-04-29T10:07:27.157Z,7.30
2018-04-29T10:09:54.680Z,7.67
2018-04-29T10:12:22.986Z,7.37
2018-04-29T10:14:50.515Z,8.10
2018-04-29T10:17:18.815Z,8.23
2018-04-29T10:19:46.344Z,7.87
2018-04-29T10:22:14.689Z,5.17
2018-04-29T10:24:42.248Z,4.80
2018-04-29T10:27:09.772Z,4.97
2018-04-29T10:29:37.298Z,4.93
2018-04-29T10:32:05.607Z,7.00
2018-04-29T10:34:33.122Z,6.53
2018-04-29T10:37:01.441Z,8.50
2018-04-29T10:39:28.971Z,6.73
2018-04-29T10:41:57.276Z,5.53
2018-04-29T10:44:24.808Z,5.60
2018-04-29T10:46:52.335Z,6.90
2018-04-29T10:49:19.858Z,7.70
2018-04-29T10:51:47.409Z,7.27
2018-04-29T10:54:14.930Z,6.53
2018-04-29T10:56:42.971Z,8.67
2018-04-29T10:59:11.352Z,6.27
2018-04-29T11:01:38.881Z,6.40
2018-04-29T11:04:06.420Z,6.83
2018-04-29T11:06:33.949Z,5.77
2018-04-29T11:09:01.482Z,8.33
2018-04-29T11:11:29.002Z,6.33
2018-04-29T11:13:56.528Z,6.50
2018-04-29T11:16:24.825Z,8.33
2018-04-29T11:18:52.364Z,7.97
2018-04-29T11:21:20.650Z,7.63
2018-04-29T11:23:48.945Z,6.13
2018-04-29T11:26:16.464Z,5.57
2018-04-29T11:28:44.000Z,4.67
2018-04-29T11:31:11.534Z,6.03
2018-04-29T11:33:39.056Z,6.60
2018-04-29T11:36:06.587Z,7.93
2018-04-29T11:38:34.134Z,5.13
2018-04-29T11:41:01.660Z,6.80
2018-04-29T11:43:29.190Z,5.83
2018-04-29T11:45:56.722Z,5.57
2018-04-29T11:48:24.261Z,7.13
2018-04-29T11:50:51.791Z,6.80
2018-04-29T11:53:19.331Z,7.17
2018-04-29T11:55:46.883Z,6.50
2018-04-29T11:58:14.407Z,7.17
2018-04-29T12:00:41.941Z,7.93
2018-04-29T12:03:09.478Z,5.50
2018-04-29T12:05:37.004Z,6.77
2018-04-29T12:08:05.306Z,7.37
2018-04-29T12:10:32.852Z,4.70
2018-04-29T12:13:00.384Z,5.17
2018-04-29T12:15:27.937Z,6.43
2018-04-29T12:17:55.456Z,4.47
2018-04-29T12:20:22.992Z,5.83
2018-04-29T12:22:50.541Z,6.43
2018-04-29T12:25:18.839Z,6.10
2018-04-29T12:27:46.386Z,5.10
2018-04-29T12:30:13.938Z,5.33
2018-04-29T12:32:41.571Z,6.30
2018-04-29T12:35:09.092Z,5.53
2018-04-29T12:37:36.639Z,5.50
2018-04-29T12:40:04.164Z,4.60
2018-04-29T12:42:31.742Z,6.50
2018-04-29T12:44:59.313Z,7.53
2018-04-29T12:47:36.467Z,4.87
2018-04-29T12:50:04.016Z,5.27
2018-04-29T12:52:32.326Z,6.27
2018-04-29T12:54:59.853Z,5.07
2018-04-29T12:57:28.171Z,5.37
2018-04-29T12:59:55.722Z,5.13
2018-04-29T13:02:23.251Z,3.47
2018-04-29T13:04:50.779Z,4.03
2018-04-29T13:07:18.308Z,5.13
2018-04-29T13:09:45.860Z,7.83
2018-04-29T13:12:13.391Z,6.37
2018-04-29T13:14:40.950Z,5.13
2018-04-29T13:17:09.234Z,6.13
2018-04-29T13:19:36.777Z,4.07
2018-04-29T13:22:05.079Z,6.37
2018-04-29T13:24:32.606Z,5.37
2018-04-29T13:27:00.919Z,6.50
2018-04-29T13:29:28.520Z,7.00
2018-04-29T13:31:55.997Z,3.53
2018-04-29T13:34:24.396Z,5.13
2018-04-29T13:36:51.924Z,3.97
2018-04-29T13:39:20.254Z,4.50
2018-04-29T13:41:47.776Z,5.30
2018-04-29T13:44:15.317Z,5.53
2018-04-29T13:46:42.835Z,6.90
2018-04-29T13:49:10.392Z,6.43
2018-04-29T13:51:37.917Z,6.10
2018-04-29T13:54:05.445Z,7.07
2018-04-29T13:56:33.013Z,7.30
2018-04-29T13:59:00.528Z,4.53
2018-04-29T14:01:28.087Z,6.00
2018-04-29T14:03:55.650Z,5.67
2018-04-29T14:06:23.183Z,6.07
2018-04-29T14:08:50.708Z,6.13
2018-04-29T14:11:19.023Z,7.17
2018-04-29T14:13:47.324Z,6.13
2018-04-29T14:16:14.956Z,4.70
2018-04-29T14:18:42.412Z,6.33
2018-04-29T14:21:10.832Z,7.17
2018-04-29T14:23:38.375Z,7.87
2018-04-29T14:26:05.911Z,5.43
2018-04-29T14:28:33.437Z,6.00
2018-04-29T14:31:01.735Z,7.50
2018-04-29T14:33:29.275Z,8.13
2018-04-29T14:35:56.822Z,6.40
2018-04-29T14:38:25.135Z,5.33
2018-04-29T14:40:52.660Z,3.83
2018-04-29T14:43:20.981Z,3.47
2018-04-29T14:45:48.498Z,8.60
2018-04-29T14:48:16.787Z,5.57
2018-04-29T14:50:44.381Z,5.30
2018-04-29T14:53:11.930Z,7.07
2018-04-29T14:55:42.967Z,6.47
2018-04-29T14:58:13.668Z,5.40
2018-04-29T15:00:41.208Z,5.93
2018-04-29T15:03:09.507Z,7.07
2018-04-29T15:05:37.042Z,8.10
2018-04-29T15:08:04.588Z,7.60
2018-04-29T15:10:32.116Z,6.97
2018-04-29T15:12:59.672Z,6.87
2018-04-29T15:15:27.198Z,7.87
2018-04-29T15:17:54.785Z,8.97
2018-04-29T15:20:22.316Z,15.10
2018-04-29T15:22:49.874Z,8.80
2018-04-29T15:25:17.420Z,9.43
2018-04-29T15:27:45.722Z,9.63
2018-04-29T15:30:13.275Z,7.67
2018-04-29T15:32:40.800Z,8.27
2018-04-29T15:35:08.332Z,8.97
2018-04-29T15:37:35.891Z,9.00
2018-04-29T15:40:03.438Z,8.93
2018-04-29T15:42:30.970Z,7.97
2018-04-29T15:44:58.515Z,11.13
2018-04-29T15:47:26.055Z,8.33
2018-04-29T15:49:53.590Z,7.00
2018-04-29T15:52:21.144Z,4.87
2018-04-29T15:54:48.722Z,8.43
2018-04-29T15:57:16.262Z,7.70
2018-04-29T15:59:43.790Z,6.30
2018-04-29T16:02:11.311Z,6.80
2018-04-29T16:04:39.608Z,7.37
2018-04-29T16:07:07.146Z,4.00
2018-04-29T16:09:34.680Z,4.73
2018-04-29T16:12:02.211Z,6.73
2018-04-29T16:14:29.752Z,4.83
2018-04-29T16:16:57.283Z,4.03
2018-04-29T16:19:24.822Z,4.77
2018-04-29T16:21:52.362Z,5.73
2018-04-29T16:24:19.921Z,6.10
2018-04-29T16:26:47.468Z,6.83
2018-04-29T16:29:15.076Z,4.20
2018-04-29T16:31:43.392Z,4.63
2018-04-29T16:34:10.945Z,3.97
2018-04-29T16:36:38.468Z,4.50
2018-04-29T16:39:06.779Z,5.67
2018-04-29T16:41:34.305Z,5.40
2018-04-29T16:44:02.630Z,4.53
2018-04-29T16:46:30.212Z,4.87
2018-04-29T16:48:57.905Z,7.73
2018-04-29T16:51:25.448Z,3.83
2018-04-29T16:53:52.986Z,4.00
2018-04-29T16:56:20.508Z,4.53
2018-04-29T16:58:48.122Z,4.23
2018-04-29T17:01:15.640Z,4.53
2018-04-29T17:03:43.184Z,5.83
2018-04-29T17:06:10.741Z,6.33
2018-04-29T17:08:38.282Z,6.53
2018-04-29T17:11:06.065Z,8.53
2018-04-29T17:13:33.591Z,6.60
2018-04-29T17:16:01.879Z,6.63
2018-04-29T17:18:29.431Z,5.67
2018-04-29T17:20:56.971Z,6.97
2018-04-29T17:23:25.289Z,7.03
2018-04-29T17:25:52.831Z,6.33
2018-04-29T17:28:21.148Z,7.13
2018-04-29T17:30:48.694Z,6.73
2018-04-29T17:33:16.219Z,7.93
2018-04-29T17:35:43.757Z,8.33
2018-04-29T17:38:11.331Z,6.40
2018-04-29T17:40:38.863Z,7.83
2018-04-29T17:43:06.429Z,8.07
2018-04-29T17:45:33.991Z,8.83
2018-04-29T17:48:01.531Z,6.07
2018-04-29T17:50:29.073Z,6.43
2018-04-29T17:52:56.596Z,6.63
2018-04-29T17:55:24.137Z,6.70
2018-04-29T17:57:51.689Z,6.80
2018-04-29T18:00:19.978Z,6.47
2018-04-29T18:02:47.530Z,4.33
2018-04-29T18:05:15.842Z,6.93
2018-04-29T18:07:43.361Z,4.30
2018-04-29T18:10:11.777Z,7.87
2018-04-29T18:12:39.365Z,7.07
2018-04-29T18:15:07.105Z,6.23
2018-04-29T18:17:34.650Z,4.53
2018-04-29T18:20:02.194Z,6.43
2018-04-29T18:22:29.808Z,5.40
2018-04-29T18:24:57.346Z,8.17
2018-04-29T18:27:24.875Z,5.60
2018-04-29T18:29:52.411Z,8.27
2018-04-29T18:32:20.709Z,7.63
2018-04-29T18:34:49.237Z,6.43
2018-04-29T18:37:16.806Z,5.47
2018-04-29T18:39:44.429Z,8.83
2018-04-29T18:42:11.962Z,5.63
2018-04-29T18:44:39.524Z,7.07
2018-04-29T18:47:07.006Z,7.20
2018-04-29T18:49:34.586Z,7.50
2018-04-29T18:52:02.132Z,7.77
2018-04-29T18:54:29.739Z,6.97
2018-04-29T18:56:58.033Z,8.93
2018-04-29T18:59:25.573Z,6.57
2018-04-29T19:01:53.123Z,6.87
2018-04-29T19:04:20.660Z,7.23
2018-04-29T19:06:48.211Z,9.03
2018-04-29T19:09:15.783Z,6.97
2018-04-29T19:11:43.303Z,7.43
2018-04-29T19:14:10.967Z,7.70
2018-04-29T19:16:38.487Z,9.53
2018-04-29T19:19:06.795Z,5.87
2018-04-29T19:21:34.342Z,8.50
2018-04-29T19:24:01.946Z,8.33
2018-04-29T19:26:30.191Z,8.20
2018-04-29T19:28:57.899Z,7.33
2018-04-29T19:31:25.475Z,8.80
2018-04-29T19:33:52.979Z,7.30
2018-04-29T19:36:20.507Z,7.80
2018-04-29T19:38:48.048Z,7.03
2018-04-29T19:41:16.384Z,6.57
2018-04-29T19:43:43.929Z,6.23
2018-04-29T19:46:11.464Z,7.63
2018-04-29T19:48:39.001Z,7.37
2018-04-29T19:51:07.113Z,7.03
2018-04-29T19:53:34.633Z,6.63
2018-04-29T19:56:04.344Z,6.23
2018-04-29T19:58:31.859Z,7.07
2018-04-29T20:00:59.430Z,8.90
2018-04-29T20:03:26.991Z,7.27
2018-04-29T20:05:54.514Z,7.97
2018-04-29T20:08:22.033Z,6.83
2018-04-29T20:10:50.350Z,7.87
2018-04-29T20:13:17.953Z,7.00
2018-04-29T20:15:45.492Z,8.07
2018-04-29T20:18:13.024Z,5.90
2018-04-29T20:20:40.572Z,6.80
2018-04-29T20:23:08.103Z,6.57
2018-04-29T20:25:36.410Z,6.67
2018-04-29T20:28:04.000Z,8.13
2018-04-29T20:30:31.652Z,9.20
2018-04-29T20:32:59.159Z,7.07
2018-04-29T20:35:27.459Z,6.20
2018-04-29T20:37:55.081Z,7.57
2018-04-29T20:40:23.310Z,6.87
2018-04-29T20:42:50.859Z,6.97
2018-04-29T20:45:18.424Z,8.10
2018-04-29T20:47:45.951Z,6.00
2018-04-29T20:50:14.264Z,5.87
2018-04-29T20:52:41.817Z,10.33
2018-04-29T20:55:09.347Z,7.87
2018-04-29T20:57:36.909Z,9.03
2018-04-29T21:00:04.448Z,6.73
2018-04-29T21:02:31.979Z,7.03
2018-04-29T21:04:59.515Z,9.17
2018-04-29T21:07:27.047Z,6.23
2018-04-29T21:09:54.582Z,10.67
2018-04-29T21:12:22.880Z,8.13
2018-04-29T21:14:50.416Z,6.73
2018-04-29T21:17:18.748Z,8.10
2018-04-29T21:19:46.263Z,10.20
2018-04-29T21:22:14.557Z,6.40
2018-04-29T21:24:42.101Z,8.37
2018-04-29T21:27:09.632Z,8.67
2018-04-29T21:29:37.164Z,6.17
2018-04-29T21:32:04.701Z,7.07
2018-04-29T21:34:32.357Z,9.17
2018-04-29T21:36:59.918Z,10.20
2018-04-29T21:39:28.223Z,7.73
2018-04-29T21:41:55.739Z,6.80
2018-04-29T21:44:23.285Z,6.67
2018-04-29T21:46:51.584Z,8.50
2018-04-29T21:49:19.109Z,4.87
2018-04-29T21:51:47.428Z,5.77
2018-04-29T21:54:14.999Z,7.43
2018-04-29T21:56:43.297Z,6.53
2018-04-29T21:59:10.829Z,4.23
2018-04-29T22:01:38.378Z,7.37
2018-04-29T22:04:05.896Z,5.07
2018-04-29T22:06:33.431Z,5.63
2018-04-29T22:09:00.960Z,3.93
2018-04-29T22:11:28.511Z,5.70
2018-04-29T22:13:56.040Z,5.57
2018-04-29T22:16:23.607Z,5.33
2018-04-29T22:18:51.913Z,8.07
2018-04-29T22:21:19.465Z,6.30
2018-04-29T22:23:47.015Z,6.47
2018-04-29T22:26:14.584Z,6.73
2018-04-29T22:28:42.122Z,6.63
2018-04-29T22:31:09.661Z,9.23
2018-04-29T22:33:37.955Z,9.57
2018-04-29T22:36:05.541Z,8.00
2018-04-29T22:38:33.100Z,4.37
2018-04-29T22:41:00.656Z,6.80
2018-04-29T22:43:28.214Z,9.20
2018-04-29T22:45:55.780Z,5.77
2018-04-29T22:48:23.304Z,6.60
2018-04-29T22:50:50.860Z,7.57
2018-04-29T22:53:19.135Z,5.60
2018-04-29T22:55:46.664Z,3.83
2018-04-29T22:58:14.295Z,3.70
2018-04-29T23:00:41.835Z,3.27
2018-04-29T23:03:09.371Z,1.90
2018-04-29T23:05:37.688Z,3.00
2018-04-29T23:08:05.232Z,2.37
2018-04-29T23:10:32.757Z,3.30
2018-04-29T23:13:01.072Z,3.73
2018-04-29T23:15:28.595Z,3.50
2018-04-29T23:17:56.112Z,3.27
2018-04-29T23:20:23.655Z,3.23
2018-04-29T23:22:51.216Z,3.80
2018-04-29T23:25:18.980Z,3.37
2018-04-29T23:27:46.577Z,2.27
2018-04-29T23:30:18.445Z,3.20
2018-04-29T23:32:46.748Z,3.93
2018-04-29T23:35:14.357Z,6.70
2018-04-29T23:37:42.592Z,2.20
2018-04-29T23:40:10.135Z,4.70
2018-04-29T23:42:37.652Z,3.13
2018-04-29T23:45:11.720Z,2.53
2018-04-29T23:47:39.230Z,2.83
2018-04-29T23:50:06.779Z,4.53
2018-04-29T23:52:34.302Z,4.23
2018-04-29T23:55:01.842Z,3.57
2018-04-29T23:57:29.359Z,2.27
2018-04-29T23:59:56.892Z,2.13
